Time;durP1;ratioP1;P1;durP2;ratioP2;P2;SDS_P1;SDS_P2;PMS_P1;PMS_P2;Temp;Humidity;BMP_temperature;BMP_pressure;BME280_temperature;BME280_humidity;BME280_pressure;Samples;Min_cycle;Max_cycle;Signal;HPM_P1;HPM_P2
2022/01/20 00:03:11;;;;;;;109.40;54.47;;;;;;;-4.66;69.37;98310.38;10370074;28;20099;-59
2022/01/20 00:29:01;;;;;;;92.80;51.00;;;;;;;-4.62;69.61;98271.84;10372153;28;20087;-59
2022/01/20 00:39:11;;;;;;;78.38;43.03;;;;;;;-4.63;68.21;98257.44;10371696;28;20067;-59
2022/01/20 00:44:10;;;;;;;86.97;46.75;;;;;;;-4.70;68.21;98246.78;10371681;28;20028;-59
2022/01/20 00:49:09;;;;;;;130.65;67.40;;;;;;;-4.77;70.33;98255.66;10371610;28;20036;-59
2022/01/20 00:54:08;;;;;;;166.30;86.45;;;;;;;-5.00;69.98;98231.31;10371254;28;20480;-59
2022/01/20 00:59:07;;;;;;;174.73;84.47;;;;;;;-4.86;70.33;98249.97;10370763;28;20071;-59
2022/01/20 01:04:06;;;;;;;163.73;83.60;;;;;;;-4.89;69.77;98249.75;10368178;28;20032;-59
2022/01/20 01:09:06;;;;;;;158.43;80.55;;;;;;;-4.92;70.82;98244.47;10370635;28;20056;-59
2022/01/20 01:14:06;;;;;;;144.45;71.15;;;;;;;-4.98;69.76;98229.78;10368507;28;20094;-59
2022/01/20 01:24:22;;;;;;;74.22;38.83;;;;;;;-4.89;69.09;98211.78;10370910;28;20068;-59
2022/01/20 01:29:49;;;;;;;75.35;41.55;;;;;;;-4.91;68.73;98196.50;10370859;28;20012;-59
2022/01/20 01:34:48;;;;;;;77.13;38.65;;;;;;;-4.99;70.11;98194.22;10366609;28;20080;-59
2022/01/20 01:39:47;;;;;;;72.88;37.40;;;;;;;-4.98;69.61;98178.25;10370439;28;20580;-59
2022/01/20 01:44:48;;;;;;;80.00;40.20;;;;;;;-4.94;68.62;98176.03;10370394;28;20439;-59
2022/01/20 01:49:47;;;;;;;74.30;37.75;;;;;;;-4.93;69.57;98169.34;10369941;28;20068;-59
2022/01/20 01:54:46;;;;;;;58.70;29.90;;;;;;;-4.93;68.84;98175.28;10369619;28;20036;-59
2022/01/20 01:59:45;;;;;;;43.22;22.30;;;;;;;-4.91;68.97;98157.63;10366834;28;20040;-59
2022/01/20 02:04:44;;;;;;;47.22;23.17;;;;;;;-4.88;67.95;98166.31;10372433;28;20075;-59
2022/01/20 02:20:16;;;;;;;36.95;18.50;;;;;;;-4.77;65.88;98134.13;10377676;28;20065;-59
2022/01/20 02:25:24;;;;;;;30.58;15.38;;;;;;;-4.69;65.62;98135.47;10376819;28;20025;-59
2022/01/20 02:30:25;;;;;;;28.65;12.98;;;;;;;-4.58;66.11;98115.03;10377099;28;20068;-59
2022/01/20 02:35:26;;;;;;;23.73;11.65;;;;;;;-4.46;63.28;98104.03;10372661;28;20120;-59
2022/01/20 02:44:48;;;;;;;26.77;13.23;;;;;;;-4.17;63.00;98097.34;10373874;28;20063;-59
2022/01/20 02:45:44;;;;;;;38.80;19.73;;;;;;;-4.08;63.65;98089.44;10376291;28;20064;-59
2022/01/20 02:50:43;;;;;;;40.47;19.42;;;;;;;-4.29;63.00;98051.88;10376110;28;20271;-59
2022/01/20 02:55:42;;;;;;;46.78;24.45;;;;;;;-4.13;63.71;98081.56;10375583;28;20033;-59
2022/01/20 03:00:41;;;;;;;49.42;24.73;;;;;;;-4.19;62.82;98082.03;10376192;28;20024;-59
2022/01/20 03:05:40;;;;;;;78.65;36.03;;;;;;;-4.22;63.30;98074.25;10372128;28;20098;-59
2022/01/20 03:10:39;;;;;;;44.88;21.67;;;;;;;-4.32;63.98;98089.69;10375467;28;20116;-59
2022/01/20 03:15:39;;;;;;;35.00;19.38;;;;;;;-4.31;63.07;98075.38;10356512;28;20112;-59
2022/01/20 03:20:38;;;;;;;31.52;16.70;;;;;;;-4.28;62.09;98071.38;10374601;28;20083;-59
2022/01/20 03:25:37;;;;;;;34.78;18.65;;;;;;;-4.35;61.74;98048.94;10371054;28;20068;-59
2022/01/20 03:30:36;;;;;;;41.38;22.90;;;;;;;-4.22;61.46;98073.41;10374010;28;20035;-59
2022/01/20 03:35:35;;;;;;;36.63;19.13;;;;;;;-4.22;61.53;98063.25;10370395;28;20064;-59
2022/01/20 03:40:35;;;;;;;;;;;;;;;-4.21;62.09;98070.97;10374939;28;20091;-59
2022/01/20 03:45:34;;;;;;;41.80;22.17;;;;;;;-4.14;61.40;98066.25;10373434;28;19912;-59
2022/01/20 03:55:52;;;;;;;21.33;10.80;;;;;;;-3.93;60.53;98057.41;10373749;28;20072;-59
2022/01/20 04:00:51;;;;;;;18.45;9.80;;;;;;;-3.78;59.83;98052.41;10373066;28;20075;-59
2022/01/20 04:05:57;;;;;;;18.30;8.90;;;;;;;-3.63;58.46;98054.97;10370286;28;20696;-59
2022/01/20 04:10:56;;;;;;;16.13;8.10;;;;;;;-3.48;58.45;98054.97;10370187;28;20484;-59
2022/01/20 04:15:55;;;;;;;14.50;7.60;;;;;;;-3.36;57.68;98053.19;10372554;28;20404;-59
2022/01/20 04:20:54;;;;;;;13.85;7.13;;;;;;;-3.17;57.38;98044.94;10372577;28;20079;-59
2022/01/20 04:25:53;;;;;;;9.60;5.50;;;;;;;-3.01;56.30;98034.88;10371249;28;20088;-59
2022/01/20 04:30:52;;;;;;;18.90;7.15;;;;;;;-2.83;54.79;98031.59;10370961;28;20044;-59
2022/01/20 04:35:51;;;;;;;15.15;7.88;;;;;;;-2.72;54.46;98033.94;10371718;28;20087;-59
2022/01/20 04:40:50;;;;;;;16.05;7.70;;;;;;;-2.58;52.93;98024.53;10368663;28;20086;-59
2022/01/20 04:45:58;;;;;;;15.50;8.23;;;;;;;-2.43;52.75;98036.31;10371356;28;20090;-59
2022/01/20 05:01:32;;;;;;;22.75;12.55;;;;;;;-2.10;51.18;98029.63;10371110;28;20064;-59
2022/01/20 05:06:31;;;;;;;28.30;8.85;;;;;;;-1.85;48.01;98021.63;10371884;28;20475;-59
2022/01/20 05:11:30;;;;;;;;;;;;;;;-1.36;47.35;98030.88;10367801;28;20519;-59
2022/01/20 05:16:29;;;;;;;13.50;6.80;;;;;;;-1.07;45.65;98020.47;10370434;28;19935;-59
2022/01/20 05:21:28;;;;;;;13.95;5.00;;;;;;;-0.68;44.16;98019.72;10370947;28;20044;-59
2022/01/20 05:26:27;;;;;;;11.85;4.97;;;;;;;-0.34;42.49;98013.69;10370413;28;20072;-59
2022/01/20 05:31:26;;;;;;;14.55;4.85;;;;;;;-0.08;42.55;98020.81;10367273;28;20492;-59
2022/01/20 05:36:25;;;;;;;16.67;7.70;;;;;;;0.14;41.13;98026.88;10372464;28;20467;-59
2022/01/20 05:41:24;;;;;;;15.63;5.55;;;;;;;0.47;40.22;98022.34;10376344;28;20083;-59
2022/01/20 05:46:27;;;;;;;18.90;7.75;;;;;;;0.64;40.15;98011.19;10358552;28;20088;-59
2022/01/20 05:51:26;;;;;;;13.98;5.80;;;;;;;0.72;39.88;98014.06;10378430;28;20064;-59
2022/01/20 05:56:25;;;;;;;24.38;11.40;;;;;;;0.80;40.48;98022.91;10375298;28;20035;-59
2022/01/20 06:01:24;;;;;;;29.02;10.55;;;;;;;0.67;40.90;98018.09;10377463;28;20559;-59
2022/01/20 06:06:23;;;;;;;17.50;7.65;;;;;;;0.59;40.03;98016.88;10375888;28;20458;-59
2022/01/20 06:11:22;;;;;;;17.60;6.82;;;;;;;0.68;39.90;98015.59;10375891;28;20151;-59
2022/01/20 06:16:21;;;;;;;19.05;5.88;;;;;;;0.79;38.53;98023.72;10372887;28;20080;-59
2022/01/20 06:21:20;;;;;;;13.27;6.38;;;;;;;0.94;38.64;98025.16;10372404;28;20128;-59
2022/01/20 06:26:19;;;;;;;15.45;7.40;;;;;;;0.97;38.99;98032.97;10358620;28;20040;-59
2022/01/20 06:31:18;;;;;;;20.77;6.03;;;;;;;0.99;38.60;98027.09;10373778;28;20155;-59
2022/01/20 06:36:17;;;;;;;14.55;7.85;;;;;;;1.10;38.04;98028.38;10365345;28;20130;-59
2022/01/20 06:41:16;;;;;;;9.77;4.20;;;;;;;1.24;37.11;98036.59;10349665;28;20052;-59
2022/01/20 06:46:15;;;;;;;11.40;5.65;;;;;;;1.52;36.32;98035.16;10361485;28;20060;-59
2022/01/20 06:51:14;;;;;;;6.30;3.70;;;;;;;1.80;34.85;98015.75;10349739;28;20119;-59
2022/01/20 06:56:13;;;;;;;9.07;4.13;;;;;;;2.13;35.15;98016.97;10358441;28;20030;-59
2022/01/20 07:01:12;;;;;;;16.95;5.28;;;;;;;2.38;33.53;98023.00;10341346;28;20506;-59
2022/01/20 07:06:11;;;;;;;13.82;3.95;;;;;;;2.61;32.38;98022.94;10374938;28;20032;-59
2022/01/20 07:11:10;;;;;;;13.20;5.13;;;;;;;2.91;32.42;98029.09;10374454;28;20076;-59
2022/01/20 07:16:09;;;;;;;19.30;6.82;;;;;;;3.14;33.24;98031.53;10374345;28;20029;-59
2022/01/20 07:21:08;;;;;;;15.20;5.10;;;;;;;3.12;33.07;98008.44;10348464;28;20099;-59
2022/01/20 07:26:07;;;;;;;14.95;5.30;;;;;;;3.25;33.07;98004.53;10374794;28;20064;-59
2022/01/20 07:31:07;;;;;;;9.07;3.47;;;;;;;3.34;32.62;97983.44;10333684;28;20047;-59
2022/01/20 07:36:06;;;;;;;7.22;3.00;;;;;;;3.31;31.21;97989.38;10374017;28;20513;-59
2022/01/20 07:41:05;;;;;;;10.98;3.63;;;;;;;3.52;32.00;98003.66;10362868;28;20511;-59
2022/01/20 07:46:04;;;;;;;8.27;3.20;;;;;;;3.64;31.44;98019.44;10341625;28;20035;-59
2022/01/20 07:51:05;;;;;;;5.03;3.20;;;;;;;3.81;32.03;98022.50;10349646;28;20039;-59
2022/01/20 07:56:05;;;;;;;19.30;9.70;;;;;;;3.96;30.92;98040.91;10373501;28;20488;-59
2022/01/20 08:01:05;;;;;;;12.30;4.40;;;;;;;4.15;29.34;98042.38;10371406;28;20562;-59
2022/01/20 08:06:05;;;;;;;8.40;3.45;;;;;;;4.38;30.09;98057.53;10354572;28;20061;-59
2022/01/20 08:11:04;;;;;;;8.35;3.90;;;;;;;4.45;30.11;98049.16;10331847;28;20065;-59
2022/01/20 08:16:03;;;;;;;7.05;3.17;;;;;;;4.52;29.73;98053.66;10332108;28;20069;-59
2022/01/20 08:21:02;;;;;;;7.85;3.60;;;;;;;4.64;29.88;98048.88;10333153;28;20064;-59
2022/01/20 08:26:02;;;;;;;;;;;;;;;4.71;28.65;98039.59;10370423;28;20056;-59
2022/01/20 08:31:01;;;;;;;21.25;8.57;;;;;;;4.88;29.19;98055.50;10359242;28;19953;-59
2022/01/20 08:36:06;;;;;;;14.25;4.80;;;;;;;5.01;28.76;98052.41;10402085;28;20468;-58
2022/01/20 08:41:05;;;;;;;8.23;3.47;;;;;;;5.12;29.12;98060.44;10405632;28;20064;-58
2022/01/20 08:46:07;;;;;;;8.20;3.30;;;;;;;5.09;29.44;98032.94;10406420;28;20024;-58
2022/01/20 08:51:07;;;;;;;13.98;4.65;;;;;;;5.28;29.22;98051.41;10404448;28;20052;-58
2022/01/20 08:56:06;;;;;;;8.70;4.40;;;;;;;5.34;29.20;98036.09;10406252;28;20067;-58
2022/01/20 09:01:05;;;;;;;;;;;;;;;5.51;28.63;98047.66;10405730;28;20060;-59
2022/01/20 09:06:06;;;;;;;9.95;4.57;;;;;;;5.59;28.85;98041.81;10396814;28;19975;-59
2022/01/20 09:11:17;;;;;;;11.63;3.95;;;;;;;5.71;28.62;98040.38;10405289;28;20075;-59
2022/01/20 09:16:16;;;;;;;9.10;3.38;;;;;;;5.85;28.84;98045.00;10405797;28;20064;-59
2022/01/20 09:21:20;;;;;;;11.05;4.35;;;;;;;5.87;27.10;98041.59;10404420;28;20041;-59
2022/01/20 09:26:19;;;;;;;9.90;5.50;;;;;;;6.03;28.52;98045.41;10404541;28;20060;-59
2022/01/20 09:31:24;;;;;;;9.38;5.03;;;;;;;6.08;28.22;98030.03;10403081;28;20040;-59
2022/01/20 09:36:23;;;;;;;10.27;3.50;;;;;;;6.25;27.94;98031.25;10401305;28;20071;-59
2022/01/20 09:41:22;;;;;;;13.65;4.22;;;;;;;6.19;26.84;97983.03;10404530;28;20028;-59
2022/01/20 09:46:21;;;;;;;11.48;3.80;;;;;;;6.45;27.46;97994.72;10380656;28;20040;-59
2022/01/20 09:51:20;;;;;;;11.48;4.97;;;;;;;6.52;27.66;97973.34;10375349;28;20056;-58
2022/01/20 09:56:19;;;;;;;7.72;4.00;;;;;;;6.58;27.44;97945.09;10376188;28;20043;-59
2022/01/20 10:01:40;;;;;;;8.13;3.95;;;;;;;6.67;28.17;97960.72;10375111;28;20060;-58
2022/01/20 10:07:00;;;;;;;9.73;3.88;;;;;;;6.78;28.35;97960.94;10373052;28;20075;-58
2022/01/20 10:11:59;;;;;;;;;;;;;;;6.83;28.28;97951.56;10376270;28;20056;-58
2022/01/20 10:16:58;;;;;;;10.15;4.63;;;;;;;6.94;28.07;97955.19;10375262;28;19921;-59
2022/01/20 10:21:57;;;;;;;8.43;3.58;;;;;;;7.07;27.84;97938.19;10375910;28;20031;-59
2022/01/20 10:26:56;;;;;;;10.10;3.50;;;;;;;7.13;27.63;97951.19;10375604;28;20372;-58
2022/01/20 10:31:55;;;;;;;8.63;3.78;;;;;;;7.16;27.46;97940.91;10371559;28;20336;-59
2022/01/20 10:36:56;;;;;;;9.90;4.18;;;;;;;7.16;27.09;97946.06;10371544;28;20521;-58
2022/01/20 10:42:00;;;;;;;11.02;4.10;;;;;;;7.20;27.79;97934.94;10374539;28;20052;-58
2022/01/20 11:02:55;;;;;;;9.20;4.00;;;;;;;7.40;28.26;97906.84;10494120;27;20376;-66
2022/01/20 11:07:54;;;;;;;7.15;3.53;;;;;;;7.05;28.69;97839.22;10494114;28;20048;-67
2022/01/20 11:27:05;;;;;;;11.30;4.65;;;;;;;7.48;29.33;97883.75;10494239;27;20383;-57
2022/01/20 11:32:23;;;;;;;14.20;4.70;;;;;;;7.43;29.75;97880.25;10494256;28;20060;-58
2022/01/20 11:37:25;;;;;;;9.85;4.20;;;;;;;7.44;29.53;97879.38;10492211;28;20549;-58
2022/01/20 11:42:25;;;;;;;6.50;3.58;;;;;;;7.47;29.47;97866.50;10494068;28;20047;-58
2022/01/20 11:47:32;;;;;;;6.78;3.60;;;;;;;7.57;29.70;97883.88;10493705;28;20059;-58
2022/01/20 11:52:31;;;;;;;7.70;3.97;;;;;;;7.63;29.64;97877.91;10493387;28;20059;-58
2022/01/20 11:57:30;;;;;;;11.02;4.70;;;;;;;7.66;30.18;97859.84;10493380;28;20027;-58
2022/01/20 12:02:32;;;;;;;7.55;3.90;;;;;;;7.67;31.03;97869.34;10493132;28;20054;-58
2022/01/20 12:07:34;;;;;;;13.70;5.22;;;;;;;7.61;30.22;97838.28;10491055;28;20067;-58
2022/01/20 12:12:33;;;;;;;10.73;5.50;;;;;;;7.75;31.13;97848.78;10492574;28;20556;-58
2022/01/20 12:17:32;;;;;;;13.32;4.80;;;;;;;7.71;30.30;97854.75;10492705;28;20066;-58
2022/01/20 12:22:38;;;;;;;9.75;4.38;;;;;;;7.71;30.90;97839.25;10490388;28;20059;-58
2022/01/20 12:27:37;;;;;;;7.72;4.40;;;;;;;7.74;30.60;97857.38;10467008;28;20471;-58
2022/01/20 12:32:36;;;;;;;10.57;3.33;;;;;;;7.71;30.85;97854.75;10464169;28;20451;-58
2022/01/20 12:37:38;;;;;;;8.73;3.17;;;;;;;7.76;31.05;97855.69;10463688;28;20488;-58
2022/01/20 12:42:38;;;;;;;6.68;3.58;;;;;;;7.72;30.61;97851.34;10464081;28;20051;-58
2022/01/20 12:47:37;;;;;;;9.30;3.80;;;;;;;7.82;31.16;97856.59;10463297;28;20055;-58
2022/01/20 12:52:48;;;;;;;6.93;3.70;;;;;;;7.86;31.00;97852.34;10463090;28;20024;-58
2022/01/20 12:57:57;;;;;;;11.68;4.32;;;;;;;7.90;31.18;97846.38;10463200;28;20070;-58
2022/01/20 13:02:56;;;;;;;30.63;4.60;;;;;;;7.91;30.43;97845.50;10462745;28;20157;-58
2022/01/20 13:07:55;;;;;;;10.30;4.32;;;;;;;7.89;29.08;97834.28;10462677;28;20128;-58
2022/01/20 13:12:54;;;;;;;12.15;5.55;;;;;;;7.92;29.29;97834.34;10460413;28;20538;-58
2022/01/20 13:18:06;;;;;;;13.10;5.88;;;;;;;8.07;30.50;97847.41;10462193;28;20516;-58
2022/01/20 13:28:14;;;;;;;8.63;3.78;;;;;;;7.94;31.15;97842.94;10461880;28;20070;-58
2022/01/20 13:33:15;;;;;;;8.25;4.45;;;;;;;7.80;31.06;97840.25;10461931;28;20082;-58
2022/01/20 13:38:15;;;;;;;6.93;3.25;;;;;;;7.71;32.15;97840.13;10458674;28;20072;-58
2022/01/20 13:48:34;;;;;;;9.75;3.92;;;;;;;7.66;32.85;97850.41;10461608;28;20465;-58
2022/01/20 13:53:35;;;;;;;10.38;3.90;;;;;;;7.61;32.81;97844.31;10460532;28;20477;-58
2022/01/20 13:58:37;;;;;;;14.23;4.68;;;;;;;7.66;32.51;97846.94;10460753;28;20071;-58
2022/01/20 14:03:39;;;;;;;8.00;3.95;;;;;;;7.63;33.07;97845.19;10460367;28;20093;-58
2022/01/20 14:08:39;;;;;;;8.95;4.03;;;;;;;7.55;32.70;97846.81;10460284;28;20088;-58
2022/01/20 14:13:38;;;;;;;15.52;4.80;;;;;;;7.46;33.05;97828.63;10459908;28;20094;-58
2022/01/20 14:18:45;;;;;;;12.35;3.80;;;;;;;7.58;33.60;97853.75;10460154;28;20036;-58
2022/01/20 14:23:44;;;;;;;8.75;4.93;;;;;;;7.42;33.75;97842.34;10459594;28;20075;-58
2022/01/20 14:28:43;;;;;;;10.00;4.40;;;;;;;7.29;34.27;97830.09;10460311;28;20111;-58
2022/01/20 14:33:42;;;;;;;7.70;4.20;;;;;;;7.14;34.19;97836.78;10459352;28;20498;-58
2022/01/20 14:38:42;;;;;;;9.30;4.50;;;;;;;7.07;34.97;97826.34;10458938;28;20043;-58
2022/01/20 14:43:41;;;;;;;9.63;4.78;;;;;;;6.96;35.53;97832.25;10459021;28;20055;-58
2022/01/20 14:48:40;;;;;;;7.30;4.45;;;;;;;6.87;35.01;97831.25;10458769;28;20056;-58
2022/01/20 14:53:39;;;;;;;10.50;5.93;;;;;;;6.68;35.31;97823.22;10456574;28;20052;-58
2022/01/20 14:58:37;;;;;;;14.43;7.57;;;;;;;6.46;36.42;97819.41;10458691;28;20039;-58
2022/01/20 15:03:36;;;;;;;25.00;12.05;;;;;;;6.26;36.68;97810.47;10456936;28;20498;-58
2022/01/20 15:08:35;;;;;;;26.00;15.68;;;;;;;6.02;37.35;97816.09;10458328;28;20471;-58
2022/01/20 15:13:34;;;;;;;22.25;13.98;;;;;;;5.88;37.09;97813.25;10456759;28;20028;-58
2022/01/20 15:18:33;;;;;;;25.17;10.23;;;;;;;5.66;37.67;97793.97;10456508;28;20064;-58
2022/01/20 15:23:33;;;;;;;18.52;8.80;;;;;;;5.58;37.73;97792.94;10456929;28;20028;-58
2022/01/20 15:28:32;;;;;;;;;;;;;;;5.44;38.16;97785.84;10458127;28;20082;-58
2022/01/20 15:33:31;;;;;;;48.75;28.67;;;;;;;5.30;38.72;97782.13;10457188;28;19943;-58
2022/01/20 15:38:30;;;;;;;68.68;41.15;;;;;;;5.31;39.03;97794.16;10457465;28;20063;-58
2022/01/20 15:43:30;;;;;;;28.55;16.08;;;;;;;5.21;39.08;97787.09;10457303;28;20031;-58
2022/01/20 15:48:29;;;;;;;63.00;36.67;;;;;;;5.01;40.08;97774.66;10457675;28;20470;-58
2022/01/20 15:53:28;;;;;;;59.00;34.45;;;;;;;4.75;41.19;97781.78;10457197;28;20051;-58
2022/01/20 15:58:27;;;;;;;69.53;36.22;;;;;;;4.36;41.38;97731.25;10455739;28;20158;-58
2022/01/20 16:03:26;;;;;;;46.53;25.98;;;;;;;4.34;42.01;97753.44;10464874;28;20050;-58
2022/01/20 16:08:25;;;;;;;32.80;18.63;;;;;;;4.14;41.71;97755.53;10464696;28;20071;-58
2022/01/20 16:13:24;;;;;;;56.92;32.70;;;;;;;4.03;42.09;97751.81;10464365;28;20024;-58
2022/01/20 16:18:23;;;;;;;60.50;35.45;;;;;;;3.93;42.53;97755.00;10464382;28;20426;-58
2022/01/20 16:23:22;;;;;;;40.35;23.25;;;;;;;3.79;43.42;97749.53;10461287;28;20060;-58
2022/01/20 16:28:21;;;;;;;38.58;18.75;;;;;;;3.62;44.57;97741.38;10463422;28;20064;-58
2022/01/20 16:33:20;;;;;;;40.78;19.10;;;;;;;3.46;44.44;97732.41;10463043;28;20417;-58
2022/01/20 16:38:19;;;;;;;22.98;11.50;;;;;;;3.26;45.46;97734.47;10462753;28;20535;-58
2022/01/20 16:43:18;;;;;;;40.63;23.05;;;;;;;3.05;46.99;97757.81;10462869;28;20587;-58
2022/01/20 16:48:19;;;;;;;56.25;31.52;;;;;;;2.98;47.01;97758.44;10461285;28;20579;-58
2022/01/20 16:53:18;;;;;;;58.17;33.67;;;;;;;2.86;47.83;97732.44;10462313;28;20066;-58
2022/01/20 16:58:18;;;;;;;58.10;33.60;;;;;;;2.78;47.45;97742.50;10460720;28;20471;-58
2022/01/20 17:03:18;;;;;;;56.33;32.90;;;;;;;2.59;48.35;97729.13;10461921;28;20059;-58
2022/01/20 17:08:18;;;;;;;51.42;30.90;;;;;;;2.66;48.41;97742.13;10461587;28;20063;-58
2022/01/20 17:13:17;;;;;;;44.03;26.65;;;;;;;2.56;49.44;97744.41;10462324;28;20051;-58
2022/01/20 17:18:16;;;;;;;32.50;17.05;;;;;;;2.51;49.65;97717.81;10461186;28;20038;-58
2022/01/20 17:23:15;;;;;;;31.83;18.75;;;;;;;2.45;49.91;97688.56;10460566;28;20083;-58
2022/01/20 17:28:14;;;;;;;58.38;25.27;;;;;;;2.46;49.55;97686.03;10461281;28;20407;-58
2022/01/20 17:33:13;;;;;;;41.53;25.75;;;;;;;2.36;49.97;97684.91;10459245;28;20032;-58
2022/01/20 17:38:12;;;;;;;32.90;20.08;;;;;;;2.40;49.41;97685.00;10460323;28;20043;-58
2022/01/20 17:43:12;;;;;;;50.15;30.70;;;;;;;2.44;49.72;97682.59;10459247;28;20063;-58
2022/01/20 17:48:11;;;;;;;62.92;32.95;;;;;;;2.44;49.84;97666.31;10459981;28;20067;-58
2022/01/20 17:53:11;;;;;;;120.00;71.80;;;;;;;2.31;51.18;97680.47;10457963;28;20024;-58
2022/01/20 17:58:10;;;;;;;61.25;35.13;;;;;;;2.26;51.65;97682.03;10458376;28;20060;-58
2022/01/20 18:03:09;;;;;;;74.15;42.80;;;;;;;2.25;51.29;97662.34;10459516;28;20059;-58
2022/01/20 18:08:08;;;;;;;77.85;46.42;;;;;;;2.21;51.83;97657.94;10459391;28;20071;-58
2022/01/20 18:13:07;;;;;;;66.45;39.22;;;;;;;2.10;51.57;97655.94;10456280;28;20032;-58
2022/01/20 18:18:06;;;;;;;77.97;47.17;;;;;;;1.99;51.82;97635.97;10458541;28;20406;-58
2022/01/20 18:23:05;;;;;;;99.85;58.70;;;;;;;1.84;53.25;97615.91;10457270;28;20127;-57
2022/01/20 18:28:04;;;;;;;107.90;66.78;;;;;;;1.67;54.28;97634.16;10458291;28;20477;-60
2022/01/20 18:33:03;;;;;;;128.48;83.40;;;;;;;1.90;53.58;97622.09;10458151;28;20048;-59
2022/01/20 18:38:02;;;;;;;95.43;57.67;;;;;;;2.15;52.57;97610.88;10457642;28;20590;-59
2022/01/20 18:43:02;;;;;;;84.10;52.20;;;;;;;2.13;52.11;97589.47;10455601;28;20063;-59
2022/01/20 18:48:01;;;;;;;77.57;48.65;;;;;;;2.22;52.35;97614.50;10457668;28;20059;-60
2022/01/20 18:53:00;;;;;;;;;;;;;;;2.30;52.27;97620.72;10455867;28;20556;-60
2022/01/20 18:57:59;;;;;;;88.97;56.58;;;;;;;2.35;52.36;97618.28;10457237;28;20311;-59
2022/01/20 19:02:58;;;;;;;183.25;109.78;;;;;;;2.21;52.76;97594.84;10457566;28;20089;-60
2022/01/20 19:07:57;;;;;;;170.45;102.50;;;;;;;2.23;52.61;97605.09;10454687;28;20117;-60
2022/01/20 19:12:56;;;;;;;166.93;105.90;;;;;;;2.12;53.62;97610.78;10457215;28;20028;-60
2022/01/20 19:17:55;;;;;;;113.30;68.57;;;;;;;1.98;54.69;97589.03;10456915;28;20546;-60
2022/01/20 19:22:54;;;;;;;50.75;31.55;;;;;;;2.00;54.00;97602.75;10455038;28;20533;-60
2022/01/20 19:27:53;;;;;;;46.95;29.98;;;;;;;2.09;54.25;97617.50;10384977;27;20069;-58
2022/01/20 19:32:52;;;;;;;45.35;28.58;;;;;;;2.21;53.61;97614.44;10373656;28;20064;-60
2022/01/20 19:37:51;;;;;;;42.50;25.67;;;;;;;2.20;53.55;97616.13;10381168;28;20044;-60
2022/01/20 19:42:51;;;;;;;45.13;28.48;;;;;;;2.30;53.84;97622.38;10380595;28;20122;-58
2022/01/20 19:47:51;;;;;;;56.53;33.58;;;;;;;2.31;53.82;97621.56;10380887;28;20060;-58
2022/01/20 19:52:51;;;;;;;18.38;11.20;;;;;;;2.71;55.20;97627.84;10381131;28;20484;-60
2022/01/20 19:57:51;;;;;;;21.23;13.40;;;;;;;3.36;54.01;97640.69;10377791;28;20052;-60
2022/01/20 20:02:50;;;;;;;45.83;28.75;;;;;;;3.56;52.72;97625.75;10381655;28;20491;-58
2022/01/20 20:07:49;;;;;;;44.20;28.10;;;;;;;3.57;52.70;97630.09;10380528;28;20083;-58
2022/01/20 20:12:48;;;;;;;45.28;28.75;;;;;;;3.44;52.12;97610.94;10380832;28;20406;-58
2022/01/20 20:17:51;;;;;;;42.45;26.45;;;;;;;3.34;52.00;97611.56;10380938;28;20472;-58
2022/01/20 20:22:51;;;;;;;36.25;23.15;;;;;;;3.37;52.13;97625.31;10380063;28;20630;-58
2022/01/20 20:27:50;;;;;;;36.38;22.85;;;;;;;3.32;52.23;97641.41;10380393;28;20067;-58
2022/01/20 20:32:49;;;;;;;41.92;25.80;;;;;;;3.20;52.75;97624.03;10380393;28;20071;-58
2022/01/20 20:37:49;;;;;;;42.10;26.90;;;;;;;3.01;53.21;97595.34;10380059;28;20072;-58
2022/01/20 20:42:48;;;;;;;49.15;30.13;;;;;;;2.99;53.47;97601.25;10379937;28;20171;-58
2022/01/20 20:47:47;;;;;;;44.25;27.00;;;;;;;3.00;54.00;97602.97;10378781;28;20060;-58
2022/01/20 20:52:46;;;;;;;35.67;22.92;;;;;;;2.89;54.09;97582.22;10379328;28;20458;-59
2022/01/20 20:57:45;;;;;;;34.33;20.80;;;;;;;2.95;54.43;97602.00;10377775;28;20060;-59
2022/01/20 21:02:46;;;;;;;49.10;28.85;;;;;;;2.89;54.62;97584.78;10379586;28;20056;-58
2022/01/20 21:07:45;;;;;;;105.53;63.78;;;;;;;2.73;55.62;97603.13;10378761;28;20064;-59
2022/01/20 21:12:44;;;;;;;115.50;67.90;;;;;;;2.66;55.62;97612.34;10378513;28;20099;-59
2022/01/20 21:17:43;;;;;;;104.35;62.40;;;;;;;2.61;56.08;97618.16;10379057;28;20076;-58
2022/01/20 21:22:43;;;;;;;;;;;;;;;2.50;56.45;97623.84;10378405;28;20495;-59
2022/01/20 21:27:42;;;;;;;33.77;18.87;;;;;;;2.38;57.60;97618.38;10378200;28;20379;-59
2022/01/20 21:32:41;;;;;;;25.25;14.68;;;;;;;2.35;57.41;97618.28;10378271;28;20486;-59
2022/01/20 21:37:41;;;;;;;24.80;15.40;;;;;;;2.30;58.66;97609.59;10377282;28;20068;-58
2022/01/20 21:42:40;;;;;;;18.55;11.13;;;;;;;2.15;59.66;97581.84;10377527;28;20064;-58
2022/01/20 21:47:40;;;;;;;17.55;10.77;;;;;;;2.27;59.51;97617.19;10377280;28;20060;-58
2022/01/20 21:52:39;;;;;;;19.08;11.95;;;;;;;2.38;59.50;97610.69;10377234;28;20464;-58
2022/01/20 21:57:38;;;;;;;33.47;16.20;;;;;;;2.43;59.37;97614.25;10375590;28;20068;-58
2022/01/20 22:02:37;;;;;;;25.58;14.65;;;;;;;2.38;59.63;97601.31;10377001;28;20064;-59
2022/01/20 22:07:36;;;;;;;24.63;13.32;;;;;;;2.61;58.72;97607.91;10377212;28;20067;-58
2022/01/20 22:12:35;;;;;;;28.73;14.18;;;;;;;2.75;58.44;97606.59;10376218;28;20040;-58
2022/01/20 22:17:37;;;;;;;29.60;15.13;;;;;;;2.88;57.94;97589.84;10376248;28;20464;-58
2022/01/20 22:22:36;;;;;;;30.50;16.75;;;;;;;2.96;58.16;97590.94;10374666;28;20080;-59
2022/01/20 22:27:35;;;;;;;40.22;20.02;;;;;;;3.10;57.35;97584.47;10376143;28;20032;-58
2022/01/20 22:32:35;;;;;;;41.28;22.50;;;;;;;3.23;57.16;97585.63;10375742;28;20040;-58
2022/01/20 22:37:34;;;;;;;83.22;50.13;;;;;;;2.99;59.01;97585.88;10375535;28;20071;-58
2022/01/20 22:42:33;;;;;;;68.80;39.30;;;;;;;2.87;59.26;97578.72;10375194;28;20064;-58
2022/01/20 22:47:32;;;;;;;66.57;39.25;;;;;;;2.84;59.42;97570.97;10374820;28;20067;-58
2022/01/20 22:52:31;;;;;;;61.97;35.42;;;;;;;2.87;59.05;97554.81;10375024;28;20061;-58
2022/01/20 22:57:30;;;;;;;48.33;27.42;;;;;;;2.79;58.93;97558.03;10374677;28;20037;-58
2022/01/20 23:02:29;;;;;;;50.40;31.73;;;;;;;2.79;59.18;97567.41;10374516;28;20078;-58
2022/01/20 23:07:28;;;;;;;55.63;33.67;;;;;;;2.71;59.86;97561.22;10374232;28;20400;-58
2022/01/20 23:12:27;;;;;;;51.83;30.42;;;;;;;2.47;60.77;97569.97;10373188;28;20025;-58
2022/01/20 23:17:32;;;;;;;20.02;11.45;;;;;;;2.29;61.71;97548.97;10373782;28;20415;-58
2022/01/20 23:22:31;;;;;;;19.27;12.05;;;;;;;2.64;60.80;97561.88;10368981;28;20519;-59
2022/01/20 23:27:30;;;;;;;17.67;9.70;;;;;;;2.79;61.15;97583.66;10369824;28;20490;-59
2022/01/20 23:32:29;;;;;;;15.75;8.88;;;;;;;2.87;62.29;97591.56;10370069;28;20549;-59
2022/01/20 23:37:30;;;;;;;11.38;7.47;;;;;;;2.99;61.60;97612.38;10373598;28;20029;-58
2022/01/20 23:42:39;;;;;;;16.42;8.80;;;;;;;3.15;61.65;97620.47;10373516;28;20068;-58
2022/01/20 23:52:55;;;;;;;14.50;8.02;;;;;;;3.35;61.60;97624.41;10373613;28;20064;-59
2022/01/20 23:57:54;;;;;;;17.10;10.05;;;;;;;3.54;61.18;97645.38;10371696;28;20076;-58
